sensor_id;sensor_type;location;lat;lon;timestamp;P1;durP1;ratioP1;P2;durP2;ratioP2
70010;SDS011;59543;37.950;-122.338;2023-05-29T00:01:28;46.92;;;9.77;;
70010;SDS011;59543;37.950;-122.338;2023-05-29T00:03:56;51.17;;;10.70;;
70010;SDS011;59543;37.950;-122.338;2023-05-29T00:06:23;40.38;;;9.77;;
70010;SDS011;59543;37.950;-122.338;2023-05-29T00:08:50;50.65;;;11.32;;
70010;SDS011;59543;37.950;-122.338;2023-05-29T00:11:16;49.05;;;10.93;;
70010;SDS011;59543;37.950;-122.338;2023-05-29T00:13:42;36.63;;;9.93;;
70010;SDS011;59543;37.950;-122.338;2023-05-29T00:16:08;42.67;;;8.75;;
70010;SDS011;59543;37.950;-122.338;2023-05-29T00:18:35;38.78;;;10.15;;
70010;SDS011;59543;37.950;-122.338;2023-05-29T00:21:01;48.20;;;10.07;;
70010;SDS011;59543;37.950;-122.338;2023-05-29T00:23:28;46.05;;;10.88;;
70010;SDS011;59543;37.950;-122.338;2023-05-29T00:25:54;52.47;;;10.13;;
70010;SDS011;59543;37.950;-122.338;2023-05-29T00:28:20;50.88;;;11.30;;
70010;SDS011;59543;37.950;-122.338;2023-05-29T00:30:46;56.60;;;11.52;;
70010;SDS011;59543;37.950;-122.338;2023-05-29T00:33:13;56.20;;;11.18;;
70010;SDS011;59543;37.950;-122.338;2023-05-29T00:35:39;50.72;;;10.07;;
70010;SDS011;59543;37.950;-122.338;2023-05-29T00:38:06;48.03;;;10.93;;
70010;SDS011;59543;37.950;-122.338;2023-05-29T00:40:32;43.67;;;9.98;;
70010;SDS011;59543;37.950;-122.338;2023-05-29T00:42:58;55.63;;;10.88;;
70010;SDS011;59543;37.950;-122.338;2023-05-29T00:45:24;48.90;;;11.10;;
70010;SDS011;59543;37.950;-122.338;2023-05-29T00:47:51;55.90;;;11.27;;
70010;SDS011;59543;37.950;-122.338;2023-05-29T00:50:20;47.60;;;10.27;;
70010;SDS011;59543;37.950;-122.338;2023-05-29T00:52:49;47.33;;;10.30;;
70010;SDS011;59543;37.950;-122.338;2023-05-29T00:55:16;44.97;;;9.52;;
70010;SDS011;59543;37.950;-122.338;2023-05-29T00:57:42;44.17;;;10.60;;
70010;SDS011;59543;37.950;-122.338;2023-05-29T01:00:10;34.20;;;9.55;;
70010;SDS011;59543;37.950;-122.338;2023-05-29T01:02:39;52.40;;;11.15;;
70010;SDS011;59543;37.950;-122.338;2023-05-29T01:05:10;50.25;;;11.50;;
70010;SDS011;59543;37.950;-122.338;2023-05-29T01:07:37;46.40;;;11.10;;
70010;SDS011;59543;37.950;-122.338;2023-05-29T01:10:07;47.72;;;10.85;;
70010;SDS011;59543;37.950;-122.338;2023-05-29T01:12:43;44.83;;;9.93;;
70010;SDS011;59543;37.950;-122.338;2023-05-29T01:18:08;45.38;;;9.98;;
70010;SDS011;59543;37.950;-122.338;2023-05-29T01:29:27;53.63;;;10.85;;
70010;SDS011;59543;37.950;-122.338;2023-05-29T01:31:56;54.15;;;10.85;;
70010;SDS011;59543;37.950;-122.338;2023-05-29T01:34:24;45.78;;;10.73;;
70010;SDS011;59543;37.950;-122.338;2023-05-29T01:36:50;42.17;;;11.20;;
70010;SDS011;59543;37.950;-122.338;2023-05-29T01:39:16;44.60;;;11.50;;
70010;SDS011;59543;37.950;-122.338;2023-05-29T01:41:44;47.72;;;11.63;;
70010;SDS011;59543;37.950;-122.338;2023-05-29T01:44:12;46.88;;;10.80;;
70010;SDS011;59543;37.950;-122.338;2023-05-29T01:46:41;40.75;;;9.88;;
70010;SDS011;59543;37.950;-122.338;2023-05-29T01:49:08;48.83;;;10.57;;
70010;SDS011;59543;37.950;-122.338;2023-05-29T01:51:36;42.17;;;10.00;;
70010;SDS011;59543;37.950;-122.338;2023-05-29T01:54:03;41.60;;;9.68;;
70010;SDS011;59543;37.950;-122.338;2023-05-29T01:56:30;46.05;;;10.40;;
70010;SDS011;59543;37.950;-122.338;2023-05-29T01:58:57;55.17;;;11.27;;
70010;SDS011;59543;37.950;-122.338;2023-05-29T02:01:25;56.55;;;10.57;;
70010;SDS011;59543;37.950;-122.338;2023-05-29T02:03:52;51.80;;;10.82;;
70010;SDS011;59543;37.950;-122.338;2023-05-29T02:06:18;47.38;;;11.60;;
70010;SDS011;59543;37.950;-122.338;2023-05-29T02:08:45;46.83;;;10.82;;
70010;SDS011;59543;37.950;-122.338;2023-05-29T02:11:12;46.83;;;10.45;;
70010;SDS011;59543;37.950;-122.338;2023-05-29T02:13:38;43.28;;;10.35;;
70010;SDS011;59543;37.950;-122.338;2023-05-29T02:16:05;51.47;;;9.77;;
70010;SDS011;59543;37.950;-122.338;2023-05-29T02:18:31;45.65;;;10.23;;
70010;SDS011;59543;37.950;-122.338;2023-05-29T02:20:59;44.25;;;10.13;;
70010;SDS011;59543;37.950;-122.338;2023-05-29T02:23:26;41.45;;;10.23;;
70010;SDS011;59543;37.950;-122.338;2023-05-29T02:25:52;51.22;;;10.20;;
70010;SDS011;59543;37.950;-122.338;2023-05-29T02:28:19;46.28;;;9.75;;
70010;SDS011;59543;37.950;-122.338;2023-05-29T02:30:45;56.88;;;10.27;;
70010;SDS011;59543;37.950;-122.338;2023-05-29T02:33:11;52.05;;;11.38;;
70010;SDS011;59543;37.950;-122.338;2023-05-29T02:35:38;56.63;;;11.82;;
70010;SDS011;59543;37.950;-122.338;2023-05-29T02:38:04;49.45;;;12.07;;
70010;SDS011;59543;37.950;-122.338;2023-05-29T02:40:30;57.45;;;11.85;;
70010;SDS011;59543;37.950;-122.338;2023-05-29T02:42:56;55.42;;;11.73;;
70010;SDS011;59543;37.950;-122.338;2023-05-29T02:45:22;59.35;;;12.90;;
70010;SDS011;59543;37.950;-122.338;2023-05-29T02:47:49;60.42;;;12.60;;
70010;SDS011;59543;37.950;-122.338;2023-05-29T02:50:15;61.25;;;11.90;;
70010;SDS011;59543;37.950;-122.338;2023-05-29T02:52:41;60.20;;;11.80;;
70010;SDS011;59543;37.950;-122.338;2023-05-29T02:55:07;54.08;;;11.57;;
70010;SDS011;59543;37.950;-122.338;2023-05-29T02:57:34;59.47;;;12.68;;
70010;SDS011;59543;37.950;-122.338;2023-05-29T03:00:00;52.63;;;11.50;;
70010;SDS011;59543;37.950;-122.338;2023-05-29T03:02:31;42.70;;;10.15;;
70010;SDS011;59543;37.950;-122.338;2023-05-29T03:04:58;47.72;;;10.80;;
70010;SDS011;59543;37.950;-122.338;2023-05-29T03:07:25;42.33;;;10.80;;
70010;SDS011;59543;37.950;-122.338;2023-05-29T03:09:52;45.15;;;9.88;;
70010;SDS011;59543;37.950;-122.338;2023-05-29T03:12:19;43.33;;;9.68;;
70010;SDS011;59543;37.950;-122.338;2023-05-29T03:14:45;59.75;;;12.02;;
70010;SDS011;59543;37.950;-122.338;2023-05-29T03:17:11;50.10;;;10.75;;
70010;SDS011;59543;37.950;-122.338;2023-05-29T03:19:38;49.30;;;10.32;;
70010;SDS011;59543;37.950;-122.338;2023-05-29T03:22:04;40.08;;;10.10;;
70010;SDS011;59543;37.950;-122.338;2023-05-29T03:24:30;48.80;;;11.40;;
70010;SDS011;59543;37.950;-122.338;2023-05-29T03:27:00;49.03;;;10.10;;
70010;SDS011;59543;37.950;-122.338;2023-05-29T03:29:29;46.50;;;10.70;;
70010;SDS011;59543;37.950;-122.338;2023-05-29T03:31:56;62.60;;;11.75;;
70010;SDS011;59543;37.950;-122.338;2023-05-29T03:34:23;39.88;;;9.45;;
70010;SDS011;59543;37.950;-122.338;2023-05-29T03:36:49;40.22;;;9.75;;
70010;SDS011;59543;37.950;-122.338;2023-05-29T03:39:15;38.22;;;8.43;;
70010;SDS011;59543;37.950;-122.338;2023-05-29T03:41:42;41.42;;;8.75;;
70010;SDS011;59543;37.950;-122.338;2023-05-29T03:44:08;37.20;;;8.52;;
70010;SDS011;59543;37.950;-122.338;2023-05-29T03:46:35;37.13;;;8.65;;
70010;SDS011;59543;37.950;-122.338;2023-05-29T03:49:01;44.70;;;9.57;;
70010;SDS011;59543;37.950;-122.338;2023-05-29T03:51:27;43.35;;;8.63;;
70010;SDS011;59543;37.950;-122.338;2023-05-29T03:53:53;32.17;;;8.73;;
70010;SDS011;59543;37.950;-122.338;2023-05-29T03:56:20;32.28;;;7.95;;
70010;SDS011;59543;37.950;-122.338;2023-05-29T03:58:46;45.42;;;8.65;;
70010;SDS011;59543;37.950;-122.338;2023-05-29T04:01:13;34.08;;;8.75;;
70010;SDS011;59543;37.950;-122.338;2023-05-29T04:03:39;35.58;;;8.65;;
70010;SDS011;59543;37.950;-122.338;2023-05-29T04:06:05;47.58;;;10.32;;
70010;SDS011;59543;37.950;-122.338;2023-05-29T04:08:32;45.45;;;9.85;;
70010;SDS011;59543;37.950;-122.338;2023-05-29T04:10:58;42.92;;;8.68;;
70010;SDS011;59543;37.950;-122.338;2023-05-29T04:13:24;37.97;;;9.05;;
70010;SDS011;59543;37.950;-122.338;2023-05-29T04:15:50;52.25;;;9.73;;
70010;SDS011;59543;37.950;-122.338;2023-05-29T04:18:18;45.45;;;9.90;;
70010;SDS011;59543;37.950;-122.338;2023-05-29T04:20:45;50.78;;;10.68;;
70010;SDS011;59543;37.950;-122.338;2023-05-29T04:23:12;45.78;;;11.18;;
70010;SDS011;59543;37.950;-122.338;2023-05-29T04:25:39;43.58;;;9.85;;
70010;SDS011;59543;37.950;-122.338;2023-05-29T04:28:05;38.13;;;9.13;;
70010;SDS011;59543;37.950;-122.338;2023-05-29T04:30:31;45.67;;;9.30;;
70010;SDS011;59543;37.950;-122.338;2023-05-29T04:32:59;50.22;;;10.48;;
70010;SDS011;59543;37.950;-122.338;2023-05-29T04:35:25;51.35;;;10.52;;
70010;SDS011;59543;37.950;-122.338;2023-05-29T04:37:54;50.25;;;11.38;;
70010;SDS011;59543;37.950;-122.338;2023-05-29T04:40:21;49.60;;;10.05;;
70010;SDS011;59543;37.950;-122.338;2023-05-29T04:42:48;42.78;;;9.00;;
70010;SDS011;59543;37.950;-122.338;2023-05-29T04:45:15;37.10;;;9.32;;
70010;SDS011;59543;37.950;-122.338;2023-05-29T04:47:45;42.17;;;8.73;;
70010;SDS011;59543;37.950;-122.338;2023-05-29T04:50:15;34.10;;;8.23;;
70010;SDS011;59543;37.950;-122.338;2023-05-29T04:52:42;33.50;;;8.68;;
70010;SDS011;59543;37.950;-122.338;2023-05-29T04:55:09;51.05;;;10.38;;
70010;SDS011;59543;37.950;-122.338;2023-05-29T04:57:36;49.88;;;10.07;;
70010;SDS011;59543;37.950;-122.338;2023-05-29T05:00:02;46.42;;;9.90;;
70010;SDS011;59543;37.950;-122.338;2023-05-29T05:02:42;42.88;;;9.68;;
70010;SDS011;59543;37.950;-122.338;2023-05-29T05:05:09;50.85;;;10.23;;
70010;SDS011;59543;37.950;-122.338;2023-05-29T05:07:36;45.08;;;9.60;;
70010;SDS011;59543;37.950;-122.338;2023-05-29T05:10:03;43.40;;;9.50;;
70010;SDS011;59543;37.950;-122.338;2023-05-29T05:12:29;52.05;;;9.60;;
70010;SDS011;59543;37.950;-122.338;2023-05-29T05:14:56;41.28;;;9.40;;
70010;SDS011;59543;37.950;-122.338;2023-05-29T05:17:22;38.50;;;9.15;;
70010;SDS011;59543;37.950;-122.338;2023-05-29T05:19:48;44.42;;;9.38;;
70010;SDS011;59543;37.950;-122.338;2023-05-29T05:22:15;34.63;;;8.70;;
70010;SDS011;59543;37.950;-122.338;2023-05-29T05:24:41;43.17;;;9.38;;
70010;SDS011;59543;37.950;-122.338;2023-05-29T05:27:07;41.45;;;9.50;;
70010;SDS011;59543;37.950;-122.338;2023-05-29T05:29:34;38.80;;;9.02;;
70010;SDS011;59543;37.950;-122.338;2023-05-29T05:32:00;42.92;;;9.52;;
70010;SDS011;59543;37.950;-122.338;2023-05-29T05:34:26;39.17;;;8.43;;
70010;SDS011;59543;37.950;-122.338;2023-05-29T05:36:52;50.15;;;9.73;;
70010;SDS011;59543;37.950;-122.338;2023-05-29T05:39:18;39.90;;;8.07;;
70010;SDS011;59543;37.950;-122.338;2023-05-29T05:41:45;45.28;;;9.82;;
70010;SDS011;59543;37.950;-122.338;2023-05-29T05:44:11;42.97;;;10.30;;
70010;SDS011;59543;37.950;-122.338;2023-05-29T05:46:37;49.85;;;9.77;;
70010;SDS011;59543;37.950;-122.338;2023-05-29T05:49:03;53.25;;;10.02;;
70010;SDS011;59543;37.950;-122.338;2023-05-29T05:51:29;49.63;;;9.93;;
70010;SDS011;59543;37.950;-122.338;2023-05-29T05:53:56;40.47;;;9.73;;
70010;SDS011;59543;37.950;-122.338;2023-05-29T05:56:22;52.17;;;9.63;;
70010;SDS011;59543;37.950;-122.338;2023-05-29T05:58:48;38.22;;;8.77;;
70010;SDS011;59543;37.950;-122.338;2023-05-29T06:01:15;45.35;;;10.23;;
70010;SDS011;59543;37.950;-122.338;2023-05-29T06:03:41;52.75;;;10.75;;
70010;SDS011;59543;37.950;-122.338;2023-05-29T06:06:07;46.58;;;9.40;;
70010;SDS011;59543;37.950;-122.338;2023-05-29T06:08:34;48.15;;;9.55;;
70010;SDS011;59543;37.950;-122.338;2023-05-29T06:11:00;37.00;;;8.27;;
70010;SDS011;59543;37.950;-122.338;2023-05-29T06:13:26;46.17;;;9.32;;
70010;SDS011;59543;37.950;-122.338;2023-05-29T06:15:53;38.78;;;8.40;;
70010;SDS011;59543;37.950;-122.338;2023-05-29T06:18:19;63.33;;;9.30;;
70010;SDS011;59543;37.950;-122.338;2023-05-29T06:20:46;36.85;;;8.73;;
70010;SDS011;59543;37.950;-122.338;2023-05-29T06:23:12;38.22;;;8.73;;
70010;SDS011;59543;37.950;-122.338;2023-05-29T06:25:38;48.03;;;8.90;;
70010;SDS011;59543;37.950;-122.338;2023-05-29T06:28:04;42.08;;;8.15;;
70010;SDS011;59543;37.950;-122.338;2023-05-29T06:30:34;38.70;;;8.48;;
70010;SDS011;59543;37.950;-122.338;2023-05-29T06:33:00;37.45;;;8.02;;
70010;SDS011;59543;37.950;-122.338;2023-05-29T06:35:27;35.30;;;7.43;;
70010;SDS011;59543;37.950;-122.338;2023-05-29T06:37:53;29.67;;;7.63;;
70010;SDS011;59543;37.950;-122.338;2023-05-29T06:40:19;34.72;;;7.85;;
70010;SDS011;59543;37.950;-122.338;2023-05-29T06:42:45;34.17;;;6.60;;
70010;SDS011;59543;37.950;-122.338;2023-05-29T06:45:12;36.10;;;7.50;;
70010;SDS011;59543;37.950;-122.338;2023-05-29T06:47:44;29.33;;;6.65;;
70010;SDS011;59543;37.950;-122.338;2023-05-29T06:50:10;28.13;;;6.60;;
70010;SDS011;59543;37.950;-122.338;2023-05-29T06:52:36;28.77;;;6.53;;
70010;SDS011;59543;37.950;-122.338;2023-05-29T06:55:03;29.33;;;5.93;;
70010;SDS011;59543;37.950;-122.338;2023-05-29T06:57:29;29.33;;;6.20;;
70010;SDS011;59543;37.950;-122.338;2023-05-29T06:59:55;28.13;;;5.90;;
70010;SDS011;59543;37.950;-122.338;2023-05-29T07:02:22;19.90;;;5.53;;
70010;SDS011;59543;37.950;-122.338;2023-05-29T07:04:48;28.88;;;5.93;;
70010;SDS011;59543;37.950;-122.338;2023-05-29T07:07:14;21.60;;;6.20;;
70010;SDS011;59543;37.950;-122.338;2023-05-29T07:09:41;22.92;;;5.60;;
70010;SDS011;59543;37.950;-122.338;2023-05-29T07:12:07;20.65;;;5.07;;
70010;SDS011;59543;37.950;-122.338;2023-05-29T07:14:33;21.42;;;4.85;;
70010;SDS011;59543;37.950;-122.338;2023-05-29T07:17:00;26.30;;;5.03;;
70010;SDS011;59543;37.950;-122.338;2023-05-29T07:19:26;17.45;;;4.93;;
70010;SDS011;59543;37.950;-122.338;2023-05-29T07:21:53;19.55;;;5.15;;
70010;SDS011;59543;37.950;-122.338;2023-05-29T07:24:20;15.13;;;4.38;;
70010;SDS011;59543;37.950;-122.338;2023-05-29T07:26:46;21.63;;;5.50;;
70010;SDS011;59543;37.950;-122.338;2023-05-29T07:29:12;20.98;;;4.68;;
70010;SDS011;59543;37.950;-122.338;2023-05-29T07:31:39;22.83;;;5.80;;
70010;SDS011;59543;37.950;-122.338;2023-05-29T07:34:06;23.73;;;5.40;;
70010;SDS011;59543;37.950;-122.338;2023-05-29T07:36:32;26.92;;;5.60;;
70010;SDS011;59543;37.950;-122.338;2023-05-29T07:38:58;22.92;;;5.45;;
70010;SDS011;59543;37.950;-122.338;2023-05-29T07:41:24;26.33;;;5.90;;
70010;SDS011;59543;37.950;-122.338;2023-05-29T07:43:54;26.15;;;5.72;;
70010;SDS011;59543;37.950;-122.338;2023-05-29T07:46:21;23.98;;;5.95;;
70010;SDS011;59543;37.950;-122.338;2023-05-29T07:48:47;18.40;;;5.10;;
70010;SDS011;59543;37.950;-122.338;2023-05-29T07:51:13;14.52;;;4.80;;
70010;SDS011;59543;37.950;-122.338;2023-05-29T07:53:39;18.27;;;5.22;;
70010;SDS011;59543;37.950;-122.338;2023-05-29T07:56:06;27.02;;;5.82;;
70010;SDS011;59543;37.950;-122.338;2023-05-29T07:58:32;17.52;;;4.47;;
70010;SDS011;59543;37.950;-122.338;2023-05-29T08:00:58;18.23;;;4.43;;
70010;SDS011;59543;37.950;-122.338;2023-05-29T08:03:25;17.50;;;4.78;;
70010;SDS011;59543;37.950;-122.338;2023-05-29T08:05:52;22.65;;;4.88;;
70010;SDS011;59543;37.950;-122.338;2023-05-29T08:08:18;19.13;;;3.97;;
70010;SDS011;59543;37.950;-122.338;2023-05-29T08:10:44;18.30;;;4.82;;
70010;SDS011;59543;37.950;-122.338;2023-05-29T08:13:11;17.67;;;4.15;;
70010;SDS011;59543;37.950;-122.338;2023-05-29T08:15:37;16.25;;;4.68;;
70010;SDS011;59543;37.950;-122.338;2023-05-29T08:18:03;19.45;;;4.80;;
70010;SDS011;59543;37.950;-122.338;2023-05-29T08:20:30;22.38;;;5.30;;
70010;SDS011;59543;37.950;-122.338;2023-05-29T08:22:56;22.20;;;5.15;;
70010;SDS011;59543;37.950;-122.338;2023-05-29T08:25:22;26.85;;;5.45;;
70010;SDS011;59543;37.950;-122.338;2023-05-29T08:27:48;23.70;;;5.05;;
70010;SDS011;59543;37.950;-122.338;2023-05-29T08:30:15;17.38;;;4.35;;
70010;SDS011;59543;37.950;-122.338;2023-05-29T08:32:41;14.13;;;4.03;;
70010;SDS011;59543;37.950;-122.338;2023-05-29T08:35:08;14.55;;;4.22;;
70010;SDS011;59543;37.950;-122.338;2023-05-29T08:37:34;15.15;;;3.65;;
70010;SDS011;59543;37.950;-122.338;2023-05-29T08:40:00;17.00;;;3.88;;
70010;SDS011;59543;37.950;-122.338;2023-05-29T08:42:33;13.15;;;3.80;;
70010;SDS011;59543;37.950;-122.338;2023-05-29T08:45:28;14.27;;;4.00;;
70010;SDS011;59543;37.950;-122.338;2023-05-29T08:47:55;12.68;;;3.78;;
70010;SDS011;59543;37.950;-122.338;2023-05-29T08:50:25;13.77;;;3.40;;
70010;SDS011;59543;37.950;-122.338;2023-05-29T08:52:52;15.07;;;3.92;;
70010;SDS011;59543;37.950;-122.338;2023-05-29T08:55:18;14.13;;;3.60;;
70010;SDS011;59543;37.950;-122.338;2023-05-29T08:57:45;14.60;;;3.85;;
70010;SDS011;59543;37.950;-122.338;2023-05-29T09:00:12;14.77;;;3.38;;
70010;SDS011;59543;37.950;-122.338;2023-05-29T09:02:39;15.93;;;3.35;;
70010;SDS011;59543;37.950;-122.338;2023-05-29T09:05:06;14.00;;;3.15;;
70010;SDS011;59543;37.950;-122.338;2023-05-29T09:07:34;18.08;;;3.90;;
70010;SDS011;59543;37.950;-122.338;2023-05-29T09:10:07;13.98;;;3.30;;
70010;SDS011;59543;37.950;-122.338;2023-05-29T09:12:34;14.35;;;3.70;;
70010;SDS011;59543;37.950;-122.338;2023-05-29T09:15:02;12.73;;;3.05;;
70010;SDS011;59543;37.950;-122.338;2023-05-29T09:17:31;12.35;;;3.20;;
70010;SDS011;59543;37.950;-122.338;2023-05-29T09:19:58;12.55;;;2.88;;
70010;SDS011;59543;37.950;-122.338;2023-05-29T09:22:25;13.98;;;3.20;;
70010;SDS011;59543;37.950;-122.338;2023-05-29T09:24:51;9.73;;;2.33;;
70010;SDS011;59543;37.950;-122.338;2023-05-29T09:27:18;9.00;;;2.55;;
70010;SDS011;59543;37.950;-122.338;2023-05-29T09:29:45;11.23;;;3.10;;
70010;SDS011;59543;37.950;-122.338;2023-05-29T09:32:14;9.32;;;2.40;;
70010;SDS011;59543;37.950;-122.338;2023-05-29T09:34:45;7.43;;;2.30;;
70010;SDS011;59543;37.950;-122.338;2023-05-29T09:37:12;11.85;;;2.40;;
70010;SDS011;59543;37.950;-122.338;2023-05-29T09:42:08;9.80;;;2.25;;
70010;SDS011;59543;37.950;-122.338;2023-05-29T09:44:35;6.68;;;1.90;;
70010;SDS011;59543;37.950;-122.338;2023-05-29T09:47:01;13.25;;;2.88;;
70010;SDS011;59543;37.950;-122.338;2023-05-29T09:49:28;6.88;;;2.35;;
70010;SDS011;59543;37.950;-122.338;2023-05-29T09:51:56;10.27;;;2.88;;
70010;SDS011;59543;37.950;-122.338;2023-05-29T09:54:27;10.73;;;2.50;;
70010;SDS011;59543;37.950;-122.338;2023-05-29T09:56:57;9.65;;;2.55;;
70010;SDS011;59543;37.950;-122.338;2023-05-29T09:59:26;10.25;;;2.60;;
70010;SDS011;59543;37.950;-122.338;2023-05-29T10:02:04;9.85;;;2.70;;
70010;SDS011;59543;37.950;-122.338;2023-05-29T10:04:35;8.73;;;2.30;;
70010;SDS011;59543;37.950;-122.338;2023-05-29T10:07:08;7.13;;;2.25;;
70010;SDS011;59543;37.950;-122.338;2023-05-29T10:09:38;8.70;;;2.45;;
70010;SDS011;59543;37.950;-122.338;2023-05-29T10:12:09;10.23;;;2.40;;
70010;SDS011;59543;37.950;-122.338;2023-05-29T10:14:37;8.10;;;1.90;;
70010;SDS011;59543;37.950;-122.338;2023-05-29T10:17:07;10.52;;;2.45;;
70010;SDS011;59543;37.950;-122.338;2023-05-29T10:19:36;12.13;;;2.15;;
70010;SDS011;59543;37.950;-122.338;2023-05-29T10:22:04;8.93;;;2.20;;
70010;SDS011;59543;37.950;-122.338;2023-05-29T10:24:32;7.20;;;2.28;;
70010;SDS011;59543;37.950;-122.338;2023-05-29T10:27:02;8.73;;;2.45;;
70010;SDS011;59543;37.950;-122.338;2023-05-29T10:29:31;8.77;;;2.60;;
70010;SDS011;59543;37.950;-122.338;2023-05-29T10:32:05;11.10;;;2.60;;
70010;SDS011;59543;37.950;-122.338;2023-05-29T10:34:56;11.00;;;2.58;;
70010;SDS011;59543;37.950;-122.338;2023-05-29T10:40:11;7.85;;;2.25;;
70010;SDS011;59543;37.950;-122.338;2023-05-29T10:45:04;12.30;;;3.13;;
70010;SDS011;59543;37.950;-122.338;2023-05-29T10:47:31;12.80;;;3.65;;
70010;SDS011;59543;37.950;-122.338;2023-05-29T10:50:00;12.70;;;3.00;;
70010;SDS011;59543;37.950;-122.338;2023-05-29T10:52:30;8.63;;;2.40;;
70010;SDS011;59543;37.950;-122.338;2023-05-29T10:54:57;11.70;;;2.60;;
70010;SDS011;59543;37.950;-122.338;2023-05-29T10:57:24;9.25;;;2.75;;
70010;SDS011;59543;37.950;-122.338;2023-05-29T11:00:05;5.38;;;1.55;;
70010;SDS011;59543;37.950;-122.338;2023-05-29T11:02:37;6.30;;;1.88;;
70010;SDS011;59543;37.950;-122.338;2023-05-29T11:05:05;7.45;;;2.30;;
70010;SDS011;59543;37.950;-122.338;2023-05-29T11:07:51;6.72;;;2.03;;
70010;SDS011;59543;37.950;-122.338;2023-05-29T11:13:27;9.15;;;1.92;;
70010;SDS011;59543;37.950;-122.338;2023-05-29T11:16:09;5.85;;;1.73;;
70010;SDS011;59543;37.950;-122.338;2023-05-29T11:18:51;9.82;;;2.13;;
70010;SDS011;59543;37.950;-122.338;2023-05-29T11:21:33;6.28;;;1.92;;
70010;SDS011;59543;37.950;-122.338;2023-05-29T11:24:00;6.30;;;2.03;;
70010;SDS011;59543;37.950;-122.338;2023-05-29T11:26:33;11.93;;;2.78;;
70010;SDS011;59543;37.950;-122.338;2023-05-29T11:29:05;11.85;;;2.42;;
70010;SDS011;59543;37.950;-122.338;2023-05-29T11:31:35;11.13;;;1.73;;
70010;SDS011;59543;37.950;-122.338;2023-05-29T11:36:40;4.32;;;1.52;;
70010;SDS011;59543;37.950;-122.338;2023-05-29T11:39:09;5.32;;;1.58;;
70010;SDS011;59543;37.950;-122.338;2023-05-29T11:41:36;6.22;;;1.50;;
70010;SDS011;59543;37.950;-122.338;2023-05-29T11:44:02;5.90;;;1.65;;
70010;SDS011;59543;37.950;-122.338;2023-05-29T11:46:33;8.25;;;1.83;;
70010;SDS011;59543;37.950;-122.338;2023-05-29T11:49:00;7.47;;;2.15;;
70010;SDS011;59543;37.950;-122.338;2023-05-29T11:51:27;5.80;;;1.65;;
70010;SDS011;59543;37.950;-122.338;2023-05-29T11:53:53;4.68;;;1.50;;
70010;SDS011;59543;37.950;-122.338;2023-05-29T11:56:26;7.00;;;1.38;;
70010;SDS011;59543;37.950;-122.338;2023-05-29T11:58:54;8.75;;;2.15;;
70010;SDS011;59543;37.950;-122.338;2023-05-29T12:01:23;7.28;;;2.00;;
70010;SDS011;59543;37.950;-122.338;2023-05-29T12:03:50;7.93;;;1.88;;
70010;SDS011;59543;37.950;-122.338;2023-05-29T12:06:38;8.15;;;2.00;;
70010;SDS011;59543;37.950;-122.338;2023-05-29T12:09:03;9.57;;;2.13;;
70010;SDS011;59543;37.950;-122.338;2023-05-29T12:11:31;7.70;;;2.10;;
70010;SDS011;59543;37.950;-122.338;2023-05-29T12:14:00;8.02;;;1.75;;
70010;SDS011;59543;37.950;-122.338;2023-05-29T12:16:27;9.43;;;2.50;;
70010;SDS011;59543;37.950;-122.338;2023-05-29T12:18:56;8.77;;;2.20;;
70010;SDS011;59543;37.950;-122.338;2023-05-29T12:21:22;7.72;;;2.08;;
70010;SDS011;59543;37.950;-122.338;2023-05-29T12:23:52;6.93;;;1.90;;
70010;SDS011;59543;37.950;-122.338;2023-05-29T12:26:22;5.18;;;1.52;;
70010;SDS011;59543;37.950;-122.338;2023-05-29T12:28:52;5.15;;;1.48;;
70010;SDS011;59543;37.950;-122.338;2023-05-29T12:31:28;9.57;;;2.22;;
70010;SDS011;59543;37.950;-122.338;2023-05-29T12:34:15;7.97;;;1.85;;
70010;SDS011;59543;37.950;-122.338;2023-05-29T12:36:43;8.18;;;1.95;;
70010;SDS011;59543;37.950;-122.338;2023-05-29T12:39:09;11.43;;;2.30;;
70010;SDS011;59543;37.950;-122.338;2023-05-29T12:41:36;7.05;;;1.85;;
70010;SDS011;59543;37.950;-122.338;2023-05-29T12:44:03;14.60;;;1.83;;
70010;SDS011;59543;37.950;-122.338;2023-05-29T12:46:43;5.78;;;1.75;;
70010;SDS011;59543;37.950;-122.338;2023-05-29T12:49:13;7.18;;;1.75;;
70010;SDS011;59543;37.950;-122.338;2023-05-29T12:51:40;7.85;;;2.10;;
70010;SDS011;59543;37.950;-122.338;2023-05-29T12:54:12;7.75;;;1.88;;
70010;SDS011;59543;37.950;-122.338;2023-05-29T12:56:41;7.38;;;2.22;;
70010;SDS011;59543;37.950;-122.338;2023-05-29T12:59:08;4.70;;;1.55;;
70010;SDS011;59543;37.950;-122.338;2023-05-29T13:01:38;5.95;;;1.60;;
70010;SDS011;59543;37.950;-122.338;2023-05-29T13:04:06;5.38;;;1.70;;
70010;SDS011;59543;37.950;-122.338;2023-05-29T13:06:33;5.57;;;1.73;;
70010;SDS011;59543;37.950;-122.338;2023-05-29T13:09:00;9.65;;;1.58;;
70010;SDS011;59543;37.950;-122.338;2023-05-29T13:11:27;5.75;;;1.63;;
70010;SDS011;59543;37.950;-122.338;2023-05-29T13:13:53;7.88;;;1.88;;
70010;SDS011;59543;37.950;-122.338;2023-05-29T13:16:19;5.40;;;1.48;;
70010;SDS011;59543;37.950;-122.338;2023-05-29T13:18:46;4.63;;;1.02;;
70010;SDS011;59543;37.950;-122.338;2023-05-29T13:21:12;4.90;;;1.27;;
70010;SDS011;59543;37.950;-122.338;2023-05-29T13:23:38;7.47;;;1.83;;
70010;SDS011;59543;37.950;-122.338;2023-05-29T13:26:05;5.50;;;1.45;;
70010;SDS011;59543;37.950;-122.338;2023-05-29T13:28:31;6.57;;;1.50;;
70010;SDS011;59543;37.950;-122.338;2023-05-29T13:30:57;4.95;;;1.63;;
70010;SDS011;59543;37.950;-122.338;2023-05-29T13:33:24;4.63;;;1.38;;
70010;SDS011;59543;37.950;-122.338;2023-05-29T13:35:50;6.95;;;1.60;;
70010;SDS011;59543;37.950;-122.338;2023-05-29T13:38:16;4.28;;;1.33;;
70010;SDS011;59543;37.950;-122.338;2023-05-29T13:40:42;6.05;;;1.63;;
70010;SDS011;59543;37.950;-122.338;2023-05-29T13:43:09;6.88;;;1.50;;
70010;SDS011;59543;37.950;-122.338;2023-05-29T13:45:35;6.00;;;1.70;;
70010;SDS011;59543;37.950;-122.338;2023-05-29T13:48:01;5.32;;;1.63;;
70010;SDS011;59543;37.950;-122.338;2023-05-29T13:50:28;5.53;;;1.55;;
70010;SDS011;59543;37.950;-122.338;2023-05-29T13:52:54;6.45;;;1.48;;
70010;SDS011;59543;37.950;-122.338;2023-05-29T13:55:20;6.38;;;1.75;;
70010;SDS011;59543;37.950;-122.338;2023-05-29T13:57:47;4.70;;;1.27;;
70010;SDS011;59543;37.950;-122.338;2023-05-29T14:00:13;4.10;;;1.33;;
70010;SDS011;59543;37.950;-122.338;2023-05-29T14:02:40;7.53;;;1.83;;
70010;SDS011;59543;37.950;-122.338;2023-05-29T14:05:06;5.22;;;1.27;;
70010;SDS011;59543;37.950;-122.338;2023-05-29T14:07:32;3.55;;;1.38;;
70010;SDS011;59543;37.950;-122.338;2023-05-29T14:09:59;5.57;;;1.25;;
70010;SDS011;59543;37.950;-122.338;2023-05-29T14:12:25;3.95;;;1.20;;
70010;SDS011;59543;37.950;-122.338;2023-05-29T14:14:51;5.32;;;1.48;;
70010;SDS011;59543;37.950;-122.338;2023-05-29T14:17:18;5.40;;;1.20;;
70010;SDS011;59543;37.950;-122.338;2023-05-29T14:19:44;3.75;;;1.45;;
70010;SDS011;59543;37.950;-122.338;2023-05-29T14:22:13;6.38;;;1.55;;
70010;SDS011;59543;37.950;-122.338;2023-05-29T14:24:39;5.15;;;1.23;;